Time;durP1;ratioP1;P1;durP2;ratioP2;P2;SDS_P1;SDS_P2;PMS_P1;PMS_P2;Temp;Humidity;BMP_temperature;BMP_pressure;BME280_temperature;BME280_humidity;BME280_pressure;Samples;Min_cycle;Max_cycle;Signal;HPM_P1;HPM_P2
2021/07/15 00:00:47;;;;;;;3.55;1.60;;;;;;;20.05;54.38;100231.78;4869258;29;20131;-73
2021/07/15 00:03:52;;;;;;;4.43;1.35;;;;;;;19.99;54.89;100232.59;4871106;29;20060;-73
2021/07/15 00:06:56;;;;;;;5.80;1.50;;;;;;;19.91;55.45;100231.91;4871329;29;20052;-75
2021/07/15 00:10:01;;;;;;;5.00;1.35;;;;;;;19.88;55.54;100222.22;4870838;29;20068;-75
2021/07/15 00:13:07;;;;;;;4.03;1.20;;;;;;;19.94;55.26;100229.63;4862472;29;20044;-75
2021/07/15 00:16:12;;;;;;;5.53;1.80;;;;;;;19.81;54.59;100226.78;4869718;29;20048;-75
2021/07/15 00:19:18;;;;;;;3.72;1.02;;;;;;;19.70;55.18;100223.78;4862310;29;20056;-75
2021/07/15 00:22:23;;;;;;;5.50;1.33;;;;;;;19.55;56.16;100218.41;4871121;29;20111;-76
2021/07/15 00:25:27;;;;;;;3.30;1.25;;;;;;;19.48;56.49;100220.19;4871036;29;20056;-75
2021/07/15 00:28:31;;;;;;;4.30;1.52;;;;;;;19.57;56.91;100218.19;4870877;29;20048;-76
2021/07/15 00:31:36;;;;;;;3.65;1.10;;;;;;;19.65;56.22;100218.06;4870818;29;20048;-73
2021/07/15 00:34:47;;;;;;;4.57;1.27;;;;;;;19.71;56.54;100215.41;4874031;29;20056;-73
2021/07/15 00:37:51;;;;;;;4.32;1.25;;;;;;;19.76;56.73;100222.97;4873355;29;20071;-74
2021/07/15 00:40:56;;;;;;;2.75;1.13;;;;;;;19.80;56.66;100218.84;4874735;29;20053;-73
2021/07/15 00:44:01;;;;;;;2.42;1.13;;;;;;;19.73;54.52;100224.19;4874861;29;20519;-73
2021/07/15 00:47:06;;;;;;;5.45;1.40;;;;;;;19.57;55.16;100210.88;4863675;29;20060;-73
2021/07/15 00:50:11;;;;;;;3.47;1.20;;;;;;;19.43;55.46;100211.78;4874722;29;20412;-73
2021/07/15 00:53:17;;;;;;;2.53;1.00;;;;;;;19.20;54.84;100213.84;4872457;29;20048;-73
2021/07/15 00:56:22;;;;;;;4.45;1.20;;;;;;;19.08;55.90;100218.09;4865457;29;20053;-73
2021/07/15 00:59:26;;;;;;;3.58;1.20;;;;;;;19.09;56.67;100217.91;4865465;29;20118;-73
2021/07/15 01:02:30;;;;;;;7.32;1.13;;;;;;;18.91;56.25;100214.78;4865447;29;20056;-73
2021/07/15 01:05:41;;;;;;;3.58;1.30;;;;;;;18.70;57.65;100215.56;4872486;29;20053;-74
2021/07/15 01:08:48;;;;;;;3.50;1.20;;;;;;;18.68;57.80;100223.06;4874156;29;20515;-74
2021/07/15 01:12:21;;;;;;;5.60;1.25;;;;;;;18.69;57.00;100219.31;4874039;29;20052;-75
2021/07/15 01:15:32;;;;;;;5.45;1.10;;;;;;;18.77;55.71;100221.06;4873043;29;20052;-74
2021/07/15 01:18:55;;;;;;;7.30;1.30;;;;;;;18.86;55.86;100213.66;4874378;29;20520;-75
2021/07/15 01:22:12;;;;;;;5.88;1.40;;;;;;;18.99;55.81;100220.09;4872095;29;20413;-75
2021/07/15 01:26:01;;;;;;;2.38;1.02;;;;;;;19.12;55.67;100209.34;4873905;29;20045;-75
2021/07/15 01:29:18;;;;;;;3.78;1.15;;;;;;;19.03;55.58;100198.78;4874031;29;20082;-75
2021/07/15 01:32:29;;;;;;;6.07;1.02;;;;;;;18.96;55.87;100203.31;4873743;29;20048;-75
2021/07/15 01:36:02;;;;;;;4.25;1.00;;;;;;;19.01;55.68;100203.59;4871947;29;20049;-74
2021/07/15 01:39:08;;;;;;;1.83;0.75;;;;;;;19.08;55.29;100202.63;4873643;29;20052;-75
2021/07/15 01:42:15;;;;;;;3.92;1.25;;;;;;;19.04;55.44;100192.28;4873318;29;20409;-75
2021/07/15 01:45:19;;;;;;;4.40;1.10;;;;;;;18.95;55.38;100194.31;4873609;29;20071;-75
2021/07/15 01:48:24;;;;;;;4.57;1.05;;;;;;;18.92;55.24;100202.84;4871964;29;20052;-75
2021/07/15 01:51:28;;;;;;;2.53;0.90;;;;;;;18.88;55.23;100198.00;4872477;29;20052;-75
2021/07/15 01:54:32;;;;;;;4.53;1.15;;;;;;;18.92;55.43;100196.56;4873559;29;20060;-75
2021/07/15 01:57:39;;;;;;;2.08;0.88;;;;;;;19.00;54.91;100202.75;4871552;29;20524;-73
2021/07/15 02:00:45;;;;;;;3.53;1.30;;;;;;;19.10;55.56;100213.31;4873259;29;20126;-73
2021/07/15 02:03:53;;;;;;;3.58;1.20;;;;;;;19.20;55.50;100217.41;4871894;29;20401;-73
2021/07/15 02:06:58;;;;;;;4.85;1.17;;;;;;;19.22;55.96;100211.75;4871111;29;20045;-75
2021/07/15 02:10:07;;;;;;;2.60;0.98;;;;;;;19.16;56.22;100210.63;4865009;29;20045;-74
2021/07/15 02:13:12;;;;;;;5.10;1.30;;;;;;;18.92;56.82;100207.44;4872989;29;20072;-73
2021/07/15 02:16:18;;;;;;;3.92;1.13;;;;;;;18.81;56.45;100214.25;4864316;29;20065;-73
2021/07/15 02:19:23;;;;;;;4.80;1.55;;;;;;;18.71;56.69;100209.06;4872759;29;20052;-73
2021/07/15 02:22:28;;;;;;;4.93;1.13;;;;;;;18.68;56.59;100198.59;4863893;29;20516;-74
2021/07/15 02:25:32;;;;;;;4.07;1.30;;;;;;;18.75;56.42;100196.81;4871366;29;20044;-74
2021/07/15 02:28:37;;;;;;;4.68;1.00;;;;;;;18.88;56.07;100190.69;4870794;29;20049;-74
2021/07/15 02:31:54;;;;;;;2.08;0.95;;;;;;;18.97;56.99;100204.97;4871137;29;20060;-74
2021/07/15 02:35:03;;;;;;;2.38;1.10;;;;;;;19.03;56.75;100201.50;4873128;29;20405;-74
2021/07/15 02:38:11;;;;;;;3.05;1.10;;;;;;;19.07;57.21;100206.38;4865083;29;20068;-74
2021/07/15 02:41:15;;;;;;;3.70;1.40;;;;;;;19.03;57.24;100207.81;4872591;29;20052;-74
2021/07/15 02:44:19;;;;;;;5.32;1.10;;;;;;;18.94;57.15;100199.91;4863937;29;20056;-74
2021/07/15 02:47:23;;;;;;;3.05;0.95;;;;;;;18.90;57.75;100199.47;4872442;29;20397;-74
2021/07/15 02:50:28;;;;;;;4.93;1.20;;;;;;;18.83;57.83;100199.41;4863524;29;20052;-74
2021/07/15 02:53:33;;;;;;;4.40;1.02;;;;;;;18.87;58.05;100201.72;4870744;29;20052;-74
2021/07/15 02:56:52;;;;;;;2.50;0.90;;;;;;;18.75;57.85;100195.94;4863190;29;20048;-74
2021/07/15 03:00:17;;;;;;;6.03;1.48;;;;;;;18.77;58.85;100199.31;4872162;29;20040;-75
2021/07/15 03:03:54;;;;;;;3.85;1.10;;;;;;;18.63;58.96;100200.19;4870177;29;20421;-74
2021/07/15 03:07:03;;;;;;;4.28;1.20;;;;;;;18.60;59.07;100190.53;4872005;29;20060;-74
2021/07/15 03:10:08;;;;;;;3.42;0.95;;;;;;;18.52;58.98;100187.94;4871203;29;20504;-75
2021/07/15 03:13:14;;;;;;;4.13;1.10;;;;;;;18.48;59.01;100194.78;4870683;29;20048;-74
2021/07/15 03:16:20;;;;;;;4.78;1.08;;;;;;;18.46;58.70;100191.41;4870103;29;20053;-75
2021/07/15 03:19:29;;;;;;;4.45;1.50;;;;;;;18.46;58.94;100188.69;4872158;29;20594;-74
2021/07/15 03:22:36;;;;;;;3.40;1.27;;;;;;;18.37;58.58;100188.97;4870373;29;20052;-74
2021/07/15 03:25:46;;;;;;;5.05;1.25;;;;;;;18.27;58.70;100189.22;4871714;29;20429;-74
2021/07/15 03:28:52;;;;;;;5.32;1.10;;;;;;;18.22;58.68;100186.22;4870590;29;20060;-74
2021/07/15 03:31:58;;;;;;;3.42;1.10;;;;;;;18.15;59.10;100190.72;4869724;29;20063;-75
2021/07/15 03:35:04;;;;;;;4.00;1.40;;;;;;;18.27;59.39;100194.66;4863376;29;20072;-74
2021/07/15 03:38:09;;;;;;;3.05;1.00;;;;;;;18.36;59.28;100198.97;4870690;29;20072;-75
2021/07/15 03:41:15;;;;;;;4.90;1.27;;;;;;;18.37;60.20;100200.66;4862896;29;20065;-75
2021/07/15 03:44:20;;;;;;;2.70;1.05;;;;;;;18.36;59.88;100195.41;4869392;29;20053;-75
2021/07/15 03:47:26;;;;;;;5.10;1.00;;;;;;;18.29;60.87;100202.63;4862616;29;20048;-75
2021/07/15 03:50:32;;;;;;;3.42;0.90;;;;;;;18.09;60.71;100208.63;4870553;29;20060;-75
2021/07/15 03:53:44;;;;;;;3.22;1.17;;;;;;;17.93;60.13;100211.50;4869340;29;20055;-74
2021/07/15 03:56:50;;;;;;;2.65;1.15;;;;;;;17.78;60.41;100204.34;4858928;29;20048;-75
2021/07/15 03:59:55;;;;;;;7.40;1.42;;;;;;;17.64;61.14;100208.75;4869619;29;20057;-75
2021/07/15 04:03:04;;;;;;;4.75;1.35;;;;;;;17.66;62.55;100203.97;4871214;29;20036;-75
2021/07/15 04:06:11;;;;;;;6.40;1.13;;;;;;;17.82;63.06;100197.56;4870447;29;20511;-75
2021/07/15 04:09:15;;;;;;;3.67;1.08;;;;;;;18.07;62.55;100197.09;4868991;29;20060;-75
2021/07/15 04:12:22;;;;;;;3.17;1.20;;;;;;;18.31;61.31;100198.69;4869372;29;20069;-75
2021/07/15 04:15:53;;;;;;;5.05;1.70;;;;;;;18.30;60.89;100207.88;4871410;29;20405;-75
2021/07/15 04:19:01;;;;;;;6.50;1.38;;;;;;;18.29;61.16;100211.66;4871231;29;20072;-75
2021/07/15 04:22:08;;;;;;;5.72;1.50;;;;;;;18.37;60.64;100214.25;4870781;29;20057;-75
2021/07/15 04:25:18;;;;;;;4.75;1.27;;;;;;;18.48;61.24;100208.38;4869776;29;20052;-75
2021/07/15 04:28:24;;;;;;;3.70;1.45;;;;;;;18.89;60.30;100211.38;4860097;29;20397;-75
2021/07/15 04:31:48;;;;;;;6.15;1.30;;;;;;;19.37;58.96;100218.00;4862290;29;20056;-75
2021/07/15 04:34:55;;;;;;;5.65;1.30;;;;;;;19.79;57.36;100212.53;4834439;29;20068;-75
2021/07/15 04:38:00;;;;;;;7.30;1.60;;;;;;;19.97;56.22;100206.59;4836056;29;20045;-74
2021/07/15 04:41:06;;;;;;;4.40;1.30;;;;;;;20.05;56.77;100217.31;4846041;29;20121;-75
2021/07/15 04:44:13;;;;;;;5.68;1.30;;;;;;;20.09;56.70;100229.53;4834583;29;20057;-74
2021/07/15 04:47:20;;;;;;;5.45;1.50;;;;;;;20.31;56.25;100235.78;4833974;29;20061;-75
2021/07/15 04:50:29;;;;;;;6.28;1.33;;;;;;;20.85;55.16;100230.38;4834664;29;20497;-75
2021/07/15 04:53:34;;;;;;;7.07;1.92;;;;;;;21.46;53.62;100232.06;4834589;29;20502;-75
2021/07/15 04:56:39;;;;;;;10.02;1.30;;;;;;;21.80;52.32;100239.25;4834601;29;20525;-74
2021/07/15 04:59:43;;;;;;;7.18;2.00;;;;;;;22.08;52.08;100237.16;4834511;29;20058;-75
2021/07/15 05:02:53;;;;;;;7.80;1.65;;;;;;;22.09;51.20;100243.47;4834409;29;20497;-75
2021/07/15 05:05:59;;;;;;;7.55;1.60;;;;;;;22.01;51.95;100241.78;4844410;29;20064;-75
2021/07/15 05:09:04;;;;;;;4.85;1.27;;;;;;;22.24;51.69;100228.53;4834014;29;20398;-75
2021/07/15 05:12:09;;;;;;;2.80;1.40;;;;;;;23.25;49.75;100237.84;4834352;29;20049;-75
2021/07/15 05:15:13;;;;;;;5.70;1.48;;;;;;;24.06;47.96;100232.44;4834544;29;20050;-75
2021/07/15 05:18:19;;;;;;;5.40;1.40;;;;;;;25.17;45.93;100234.81;4835668;29;20053;-75
2021/07/15 05:21:24;;;;;;;8.55;1.80;;;;;;;26.21;43.04;100226.00;4837628;29;20054;-75
2021/07/15 05:24:29;;;;;;;4.90;1.50;;;;;;;26.97;41.93;100223.03;4842923;29;20497;-73
2021/07/15 05:27:34;;;;;;;4.72;1.00;;;;;;;27.98;40.43;100227.69;4838274;29;20044;-75
2021/07/15 05:30:38;;;;;;;7.70;1.67;;;;;;;28.58;38.53;100233.34;4835193;29;20502;-73
2021/07/15 05:33:42;;;;;;;6.05;1.40;;;;;;;29.53;37.00;100233.72;4855656;29;20052;-73
2021/07/15 05:36:48;;;;;;;5.45;1.60;;;;;;;30.14;36.24;100231.53;4853116;29;20056;-74
2021/07/15 05:39:52;;;;;;;6.55;1.40;;;;;;;30.94;34.18;100236.75;4864002;29;20500;-73
2021/07/15 05:42:56;;;;;;;4.20;1.40;;;;;;;31.82;33.47;100235.63;4864268;29;20052;-73
2021/07/15 05:46:02;;;;;;;6.05;1.73;;;;;;;33.28;31.17;100234.53;4852525;29;20064;-73
2021/07/15 05:49:07;;;;;;;7.97;1.95;;;;;;;34.02;30.01;100240.69;4864089;29;20065;-74
2021/07/15 05:52:12;;;;;;;5.80;1.60;;;;;;;34.90;29.40;100247.97;4863681;29;20060;-74
2021/07/15 05:55:16;;;;;;;6.32;1.73;;;;;;;34.86;28.64;100244.94;4869375;29;20056;-75
2021/07/15 05:58:20;;;;;;;6.38;1.52;;;;;;;35.63;28.80;100243.66;4882332;29;20056;-73
2021/07/15 06:01:24;;;;;;;9.98;1.92;;;;;;;34.80;29.64;100251.69;4882108;29;20064;-73
2021/07/15 06:04:29;;;;;;;6.50;1.50;;;;;;;33.15;31.57;100240.72;4881428;29;20068;-73
2021/07/15 06:07:36;;;;;;;6.35;1.50;;;;;;;31.90;33.92;100248.94;4882241;29;20056;-75
2021/07/15 06:10:41;;;;;;;7.22;1.55;;;;;;;31.29;34.96;100248.00;4874703;29;20060;-74
2021/07/15 06:13:45;;;;;;;5.22;1.55;;;;;;;31.99;33.42;100255.66;4881937;29;20056;-74
2021/07/15 06:16:50;;;;;;;7.80;1.70;;;;;;;33.15;31.83;100241.56;4881599;29;20061;-74
2021/07/15 06:19:54;;;;;;;4.75;1.50;;;;;;;33.46;31.07;100242.22;4862932;29;20397;-74
2021/07/15 06:22:59;;;;;;;4.00;1.40;;;;;;;34.45;29.56;100240.91;4851190;29;20076;-76
2021/07/15 06:26:10;;;;;;;5.75;1.65;;;;;;;35.27;29.01;100231.31;4862902;29;20585;-76
2021/07/15 06:29:15;;;;;;;5.45;1.98;;;;;;;36.48;26.48;100227.44;4862258;29;20072;-75
2021/07/15 06:32:19;;;;;;;4.32;1.50;;;;;;;38.92;24.47;100232.59;4862260;29;20053;-73
2021/07/15 06:35:24;;;;;;;6.03;1.88;;;;;;;40.00;22.19;100235.44;4863040;29;20092;-74
2021/07/15 06:38:31;;;;;;;8.30;1.50;;;;;;;39.41;23.24;100237.84;4863071;29;20516;-75
2021/07/15 06:41:36;;;;;;;7.50;1.70;;;;;;;37.55;25.31;100231.66;4863043;29;20053;-74
2021/07/15 06:44:40;;;;;;;5.90;1.17;;;;;;;37.50;25.88;100237.38;4851362;29;20084;-74
2021/07/15 06:47:45;;;;;;;4.45;1.30;;;;;;;37.31;25.59;100237.50;4862998;29;20052;-72
2021/07/15 06:50:50;;;;;;;5.07;1.13;;;;;;;38.19;24.21;100228.41;4851368;29;20060;-72
2021/07/15 06:53:55;;;;;;;11.85;2.05;;;;;;;39.17;23.15;100231.03;4861984;29;20512;-72
2021/07/15 06:56:59;;;;;;;7.10;1.90;;;;;;;35.99;27.38;100234.72;4862439;29;20053;-73
2021/07/15 07:00:13;;;;;;;6.53;1.52;;;;;;;34.26;29.86;100242.75;4861844;29;20056;-76
2021/07/15 07:03:17;;;;;;;8.27;2.10;;;;;;;32.12;32.65;100248.72;4862663;29;20492;-75
2021/07/15 07:06:23;;;;;;;10.75;3.15;;;;;;;30.67;35.56;100247.97;4862751;29;20512;-75
2021/07/15 07:09:27;;;;;;;9.05;2.95;;;;;;;29.92;37.32;100251.00;4862945;29;20057;-75
2021/07/15 07:12:31;;;;;;;10.70;5.82;;;;;;;29.91;37.45;100259.56;4860837;29;20409;-74
2021/07/15 07:15:36;;;;;;;9.82;2.50;;;;;;;29.20;38.93;100260.72;4861386;29;20385;-74
2021/07/15 07:18:40;;;;;;;4.97;2.22;;;;;;;28.84;40.03;100264.94;4861337;29;20052;-74
2021/07/15 07:21:45;;;;;;;7.65;1.90;;;;;;;28.48;41.19;100259.97;4861259;29;20397;-73
2021/07/15 07:24:50;;;;;;;7.60;2.10;;;;;;;28.66;41.98;100262.50;4861088;29;20056;-73
2021/07/15 07:27:55;;;;;;;9.43;2.03;;;;;;;28.70;41.06;100266.41;4862398;29;20056;-75
2021/07/15 07:30:59;;;;;;;7.53;2.28;;;;;;;28.66;40.94;100270.78;4862338;29;20053;-73
2021/07/15 07:34:03;;;;;;;8.23;2.83;;;;;;;28.62;40.46;100267.69;4861614;29;20068;-74
2021/07/15 07:37:08;;;;;;;6.40;2.47;;;;;;;28.42;41.30;100267.34;4862262;29;20393;-75
2021/07/15 07:40:13;;;;;;;5.80;2.20;;;;;;;28.32;41.54;100261.66;4862194;29;20386;-73
2021/07/15 07:43:18;;;;;;;10.95;3.03;;;;;;;28.27;42.42;100256.91;4862021;29;20080;-74
2021/07/15 07:46:22;;;;;;;8.13;2.83;;;;;;;28.15;42.72;100260.84;4850973;29;20064;-75
2021/07/15 07:49:27;;;;;;;9.23;2.75;;;;;;;27.65;43.11;100258.84;4850676;29;20057;-73
2021/07/15 07:52:31;;;;;;;8.93;2.60;;;;;;;27.23;44.56;100256.63;4862056;29;20061;-73
2021/07/15 07:55:36;;;;;;;32.63;25.95;;;;;;;27.44;43.80;100259.56;4861964;29;20060;-74
2021/07/15 07:58:40;;;;;;;16.35;9.38;;;;;;;27.58;44.17;100263.69;4861954;29;20054;-74
2021/07/15 08:01:44;;;;;;;10.38;3.75;;;;;;;27.57;44.01;100259.28;4861602;29;20500;-74
2021/07/15 08:04:49;;;;;;;9.45;3.22;;;;;;;26.85;45.69;100260.81;4861756;29;20057;-74
2021/07/15 08:07:53;;;;;;;7.80;2.42;;;;;;;27.17;45.33;100257.59;4862065;29;20378;-73
2021/07/15 08:10:57;;;;;;;9.57;3.03;;;;;;;27.86;43.50;100250.94;4861986;29;20057;-74
2021/07/15 08:14:02;;;;;;;7.80;3.28;;;;;;;27.61;43.78;100251.31;4861773;29;20060;-74
2021/07/15 08:17:06;;;;;;;9.98;2.60;;;;;;;27.42;44.64;100256.22;4860901;29;20052;-74
2021/07/15 08:20:12;;;;;;;8.38;3.30;;;;;;;27.35;44.51;100261.03;4860895;29;20065;-75
2021/07/15 08:23:16;;;;;;;8.23;3.20;;;;;;;27.38;44.44;100263.28;4849935;29;20143;-74
2021/07/15 08:26:20;;;;;;;6.70;3.08;;;;;;;27.33;43.76;100265.91;4861908;29;20053;-74
2021/07/15 08:29:24;;;;;;;4.65;2.35;;;;;;;27.32;43.83;100260.66;4861038;29;20049;-74
2021/07/15 08:32:29;;;;;;;9.20;2.55;;;;;;;27.44;44.03;100259.56;4861311;29;20142;-74
2021/07/15 08:35:34;;;;;;;8.57;2.92;;;;;;;27.71;44.61;100257.88;4861568;29;20057;-75
2021/07/15 08:38:40;;;;;;;10.18;3.33;;;;;;;27.96;44.23;100257.47;4861815;29;20057;-74
2021/07/15 08:41:47;;;;;;;9.27;3.42;;;;;;;27.93;43.59;100263.47;4861800;29;20056;-74
2021/07/15 08:44:53;;;;;;;7.32;2.60;;;;;;;28.11;42.72;100260.53;4849894;29;20500;-73
2021/07/15 08:48:01;;;;;;;9.20;2.70;;;;;;;28.32;42.54;100258.91;4861528;29;20052;-72
2021/07/15 08:51:05;;;;;;;10.38;3.08;;;;;;;27.89;43.53;100267.00;4861721;29;20061;-73
2021/07/15 08:54:12;;;;;;;7.78;3.17;;;;;;;27.65;44.12;100280.91;4862213;29;20094;-74
2021/07/15 08:57:17;;;;;;;9.43;2.60;;;;;;;27.68;44.21;100294.22;4865259;29;20068;-76
2021/07/15 09:00:21;;;;;;;13.82;3.15;;;;;;;27.24;45.75;100291.38;4864247;29;20061;-76
2021/07/15 09:03:25;;;;;;;6.85;2.80;;;;;;;27.35;45.30;100291.34;4865128;29;20061;-75
2021/07/15 09:06:30;;;;;;;6.50;3.00;;;;;;;27.45;45.86;100280.56;4864820;29;20488;-77
2021/07/15 09:09:34;;;;;;;5.60;3.08;;;;;;;27.49;45.09;100286.41;4864088;29;20053;-74
2021/07/15 09:12:38;;;;;;;10.07;3.03;;;;;;;27.24;45.62;100289.44;4864441;29;20052;-73
2021/07/15 09:15:47;;;;;;;11.13;3.63;;;;;;;26.90;46.54;100290.38;4863697;29;20068;-76
2021/07/15 09:19:12;;;;;;;7.60;3.45;;;;;;;26.76;47.38;100284.31;4864705;29;20061;-76
2021/07/15 09:22:17;;;;;;;12.02;3.60;;;;;;;26.75;47.31;100271.56;4864719;29;20135;-74
2021/07/15 09:25:21;;;;;;;9.48;3.42;;;;;;;27.13;46.34;100279.31;4864489;29;20053;-74
2021/07/15 09:28:29;;;;;;;8.05;3.70;;;;;;;27.09;46.86;100275.34;4864419;29;20390;-76
2021/07/15 09:31:34;;;;;;;9.38;3.38;;;;;;;27.61;45.82;100271.47;4864687;29;20057;-76
2021/07/15 09:34:39;;;;;;;9.10;3.10;;;;;;;28.31;44.20;100269.13;4864312;29;20052;-75
2021/07/15 09:37:43;;;;;;;8.40;3.13;;;;;;;28.83;43.50;100264.13;4853187;29;20060;-75
2021/07/15 09:40:55;;;;;;;8.63;3.40;;;;;;;29.25;42.40;100261.63;4864044;29;20052;-76
2021/07/15 09:44:01;;;;;;;9.80;3.25;;;;;;;29.25;42.06;100272.69;4863562;29;20060;-75
2021/07/15 09:46:53;;;;;;;15.47;3.40;;;;;;;28.84;42.32;100278.75;4864494;29;20053;-75
2021/07/15 09:49:57;;;;;;;7.07;2.78;;;;;;;28.98;42.75;100275.38;4864124;29;20283;-75
2021/07/15 09:53:26;;;;;;;8.10;3.75;;;;;;;29.11;42.60;100278.84;4864008;29;20057;-76
2021/07/15 09:56:41;;;;;;;10.25;2.80;;;;;;;29.22;42.41;100284.28;4863733;29;20057;-75
2021/07/15 09:59:49;;;;;;;10.00;3.22;;;;;;;28.94;42.62;100279.72;4863906;29;20056;-76
2021/07/15 10:02:57;;;;;;;8.73;3.40;;;;;;;28.60;43.73;100280.91;4864166;29;20060;-76
2021/07/15 10:06:03;;;;;;;11.70;3.30;;;;;;;28.42;45.31;100283.91;4862664;29;20061;-75
2021/07/15 10:09:21;;;;;;;12.75;2.88;;;;;;;28.41;45.01;100282.25;4852396;29;20056;-75
2021/07/15 10:12:26;;;;;;;10.35;2.60;;;;;;;28.31;44.31;100276.56;4852605;29;20068;-76
2021/07/15 10:15:31;;;;;;;7.47;4.30;;;;;;;27.93;45.69;100279.19;4863781;29;20057;-75
2021/07/15 10:18:46;;;;;;;22.30;18.17;;;;;;;27.77;45.87;100281.69;4862256;29;20512;-76
2021/07/15 10:22:07;;;;;;;10.13;3.78;;;;;;;27.67;45.36;100280.69;4852221;29;20382;-76
2021/07/15 10:25:15;;;;;;;9.63;3.50;;;;;;;27.73;45.81;100286.03;4863226;29;20060;-75
2021/07/15 10:28:19;;;;;;;9.57;3.65;;;;;;;27.77;45.83;100292.72;4863223;29;20378;-75
2021/07/15 10:31:24;;;;;;;7.68;2.85;;;;;;;28.29;45.01;100292.56;4863335;29;20057;-76
2021/07/15 10:34:31;;;;;;;6.05;2.80;;;;;;;28.60;44.28;100291.97;4863240;29;20064;-76
2021/07/15 10:37:47;;;;;;;6.88;3.30;;;;;;;28.31;45.06;100298.66;4851355;29;20156;-75
2021/07/15 10:40:52;;;;;;;8.23;4.03;;;;;;;27.99;45.42;100295.63;4862948;29;20469;-76
2021/07/15 10:43:56;;;;;;;9.23;3.67;;;;;;;28.23;44.77;100293.53;4863012;29;20056;-75
2021/07/15 10:47:01;;;;;;;8.30;3.65;;;;;;;28.34;44.53;100298.16;4851322;29;20089;-76
2021/07/15 10:50:07;;;;;;;24.85;18.80;;;;;;;28.26;44.26;100296.66;4862818;29;20048;-76
2021/07/15 10:53:14;;;;;;;12.50;6.45;;;;;;;28.38;43.81;100288.28;4862184;29;20065;-76
2021/07/15 10:56:20;;;;;;;6.68;2.80;;;;;;;28.81;42.99;100287.56;4862990;29;20070;-76
2021/07/15 10:59:29;;;;;;;7.13;3.53;;;;;;;28.74;43.11;100284.16;4862753;29;20060;-76
2021/07/15 11:02:33;;;;;;;10.57;3.42;;;;;;;28.28;43.92;100280.66;4862864;29;20489;-75
2021/07/15 11:05:56;;;;;;;9.95;2.50;;;;;;;28.59;43.58;100283.91;4851067;29;20061;-74
2021/07/15 11:09:02;;;;;;;7.70;2.85;;;;;;;28.84;43.35;100268.53;4862511;29;20101;-74
2021/07/15 11:12:29;;;;;;;4.80;2.30;;;;;;;29.10;42.96;100277.16;4861849;29;20077;-75
2021/07/15 11:15:55;;;;;;;6.10;2.30;;;;;;;29.37;41.94;100275.31;4851518;29;20497;-75
2021/07/15 11:19:01;;;;;;;10.82;3.53;;;;;;;28.83;42.97;100275.16;4862294;29;20048;-73
2021/07/15 11:22:06;;;;;;;8.65;2.78;;;;;;;28.76;43.29;100271.72;4861649;29;20064;-74
2021/07/15 11:25:36;;;;;;;10.15;2.72;;;;;;;28.87;42.87;100269.94;4862464;29;20052;-74
2021/07/15 11:28:50;;;;;;;6.93;2.10;;;;;;;28.87;43.41;100269.94;4862711;29;20061;-74
2021/07/15 11:31:54;;;;;;;8.70;2.42;;;;;;;28.98;42.77;100260.72;4861955;29;20397;-74
2021/07/15 11:34:59;;;;;;;8.25;2.50;;;;;;;29.05;43.07;100261.34;4862622;29;20529;-75
2021/07/15 11:38:13;;;;;;;10.27;2.42;;;;;;;28.99;43.17;100263.22;4862301;29;20402;-76
2021/07/15 11:41:17;;;;;;;7.10;2.65;;;;;;;29.16;42.42;100256.78;4862443;29;20060;-74
2021/07/15 11:44:22;;;;;;;6.85;2.60;;;;;;;29.13;42.36;100263.69;4862297;29;20060;-74
2021/07/15 11:47:50;;;;;;;7.43;2.15;;;;;;;29.10;42.50;100268.88;4862381;29;20501;-76
2021/07/15 11:51:33;;;;;;;9.05;2.70;;;;;;;29.09;42.79;100261.66;4861839;29;20057;-75
2021/07/15 11:54:45;;;;;;;7.72;2.60;;;;;;;29.27;41.95;100264.97;4862055;29;20052;-76
2021/07/15 11:57:50;;;;;;;7.80;3.40;;;;;;;29.58;42.56;100272.50;4862044;29;20049;-75
2021/07/15 12:01:16;;;;;;;8.82;2.90;;;;;;;29.72;42.38;100259.09;4862170;29;20374;-75
2021/07/15 12:04:20;;;;;;;8.88;3.28;;;;;;;29.23;42.16;100260.22;4861808;29;20056;-74
2021/07/15 12:07:25;;;;;;;10.95;2.50;;;;;;;29.42;42.33;100267.06;4861865;29;20073;-75
2021/07/15 12:10:32;;;;;;;9.27;2.95;;;;;;;29.23;42.23;100263.84;4861880;29;20057;-75
2021/07/15 12:13:37;;;;;;;8.27;3.20;;;;;;;29.34;42.55;100262.00;4862055;29;20057;-76
2021/07/15 12:16:42;;;;;;;8.15;2.75;;;;;;;29.11;41.95;100270.56;4850299;29;20508;-74
2021/07/15 12:19:56;;;;;;;9.85;3.05;;;;;;;29.17;42.61;100273.13;4861987;29;20501;-76
2021/07/15 12:23:01;;;;;;;10.27;2.83;;;;;;;29.50;41.85;100266.63;4861441;29;20052;-74
2021/07/15 12:26:07;;;;;;;8.98;2.85;;;;;;;29.38;41.99;100266.75;4861335;29;20072;-75
2021/07/15 12:29:14;;;;;;;8.35;3.03;;;;;;;29.21;41.89;100267.94;4862481;29;20377;-75
2021/07/15 12:32:18;;;;;;;9.05;2.42;;;;;;;29.38;41.38;100268.69;4865186;29;20422;-75
2021/07/15 12:35:24;;;;;;;8.15;2.65;;;;;;;29.53;41.38;100261.38;4865404;29;20064;-75
2021/07/15 12:38:31;;;;;;;11.88;2.58;;;;;;;28.91;43.13;100269.19;4865397;29;20057;-75
2021/07/15 12:41:41;;;;;;;9.13;2.55;;;;;;;28.92;43.27;100259.81;4865609;29;20052;-75
2021/07/15 12:44:46;;;;;;;11.40;2.00;;;;;;;29.12;43.47;100255.63;4865237;29;20421;-75
2021/07/15 12:48:01;;;;;;;5.72;2.20;;;;;;;29.06;42.00;100259.44;4865501;29;20080;-75
2021/07/15 12:51:06;;;;;;;8.38;2.60;;;;;;;28.90;42.90;100248.19;4853522;29;20052;-75
2021/07/15 12:54:30;;;;;;;7.65;2.28;;;;;;;28.86;42.18;100240.66;4865157;29;20059;-75
2021/07/15 12:57:35;;;;;;;8.65;2.70;;;;;;;28.55;43.09;100246.81;4864473;29;20069;-75
2021/07/15 13:00:41;;;;;;;10.23;2.10;;;;;;;28.32;43.54;100247.84;4864945;29;20056;-75
2021/07/15 13:04:03;;;;;;;7.72;2.15;;;;;;;28.38;44.07;100238.56;4865182;29;20053;-75
2021/07/15 13:07:09;;;;;;;10.00;2.35;;;;;;;28.11;43.39;100240.34;4864032;29;20056;-74
2021/07/15 13:10:36;;;;;;;7.10;2.20;;;;;;;28.35;43.17;100244.59;4865138;29;20394;-74
2021/07/15 13:17:05;;;;;;;20.85;15.00;;;;;;;28.51;43.46;100231.84;4864876;29;20057;-75
2021/07/15 13:20:12;;;;;;;9.63;2.72;;;;;;;28.17;42.98;100247.63;4864609;29;20045;-75
2021/07/15 13:23:17;;;;;;;7.20;1.95;;;;;;;28.26;44.22;100244.19;4864789;29;20049;-75
2021/07/15 13:26:21;;;;;;;7.55;2.33;;;;;;;28.45;43.83;100235.63;4864799;29;20072;-74
2021/07/15 13:29:34;;;;;;;6.70;2.30;;;;;;;28.63;43.76;100236.22;4864725;29;20057;-74
2021/07/15 13:32:38;;;;;;;7.53;1.88;;;;;;;28.74;42.47;100237.19;4864311;29;20057;-74
2021/07/15 13:35:45;;;;;;;6.50;1.55;;;;;;;28.87;42.44;100240.41;4863890;29;20065;-75
2021/07/15 13:38:49;;;;;;;5.47;1.73;;;;;;;28.87;42.29;100232.09;4864356;29;20056;-75
2021/07/15 13:41:57;;;;;;;5.80;1.60;;;;;;;28.76;42.66;100233.03;4852389;29;20409;-75
2021/07/15 13:45:11;;;;;;;6.45;2.03;;;;;;;29.07;42.26;100231.50;4864200;29;20068;-74
2021/07/15 13:48:21;;;;;;;6.47;1.80;;;;;;;29.22;41.74;100234.50;4864221;29;20056;-75
2021/07/15 13:51:25;;;;;;;5.53;1.80;;;;;;;29.26;41.12;100229.25;4864361;29;20052;-74
2021/07/15 13:54:30;;;;;;;6.38;1.70;;;;;;;29.32;40.93;100234.63;4864322;29;20061;-75
2021/07/15 13:57:37;;;;;;;8.90;1.90;;;;;;;29.36;40.71;100229.38;4864001;29;20053;-75
2021/07/15 14:00:53;;;;;;;7.20;1.65;;;;;;;29.25;41.13;100233.97;4863972;29;20060;-75
2021/07/15 14:03:57;;;;;;;5.65;1.77;;;;;;;29.08;41.13;100229.59;4863908;29;20064;-74
2021/07/15 14:07:03;;;;;;;6.20;1.70;;;;;;;29.16;40.94;100229.16;4863793;29;20386;-74
2021/07/15 14:10:12;;;;;;;8.02;1.92;;;;;;;29.18;41.68;100226.94;4864113;29;20065;-74
2021/07/15 14:13:17;;;;;;;17.90;12.38;;;;;;;29.26;41.27;100224.56;4864008;29;20059;-73
2021/07/15 14:16:27;;;;;;;10.30;4.68;;;;;;;29.01;41.11;100222.31;4863953;29;20045;-74
2021/07/15 14:19:32;;;;;;;10.90;2.35;;;;;;;28.92;41.87;100218.34;4863665;29;20056;-74
2021/07/15 14:22:37;;;;;;;11.93;1.70;;;;;;;28.93;42.06;100221.97;4863398;29;20056;-73
2021/07/15 14:25:42;;;;;;;6.78;1.70;;;;;;;28.84;42.05;100221.56;4863574;29;20393;-74
2021/07/15 14:28:46;;;;;;;5.35;1.50;;;;;;;28.79;42.45;100223.41;4863227;29;20057;-74
2021/07/15 14:31:52;;;;;;;9.38;2.00;;;;;;;28.90;42.36;100214.16;4863728;29;20063;-73
2021/07/15 14:34:56;;;;;;;11.63;1.90;;;;;;;28.98;41.99;100219.25;4844696;29;20057;-74